sensor_id;sensor_type;location;lat;lon;timestamp;P1;durP1;ratioP1;P2;durP2;ratioP2
7523;SDS011;3803;51.666;7.630;2023-03-24T00:00:14;3.67;;;2.92;;
7523;SDS011;3803;51.666;7.630;2023-03-24T00:00:36;4.13;;;3.13;;
7523;SDS011;3803;51.666;7.630;2023-03-24T00:00:58;5.05;;;3.20;;
7523;SDS011;3803;51.666;7.630;2023-03-24T00:01:20;5.15;;;3.20;;
7523;SDS011;3803;51.666;7.630;2023-03-24T00:01:41;5.30;;;3.20;;
7523;SDS011;3803;51.666;7.630;2023-03-24T00:02:02;5.60;;;3.20;;
7523;SDS011;3803;51.666;7.630;2023-03-24T00:02:22;5.07;;;3.10;;
7523;SDS011;3803;51.666;7.630;2023-03-24T00:02:43;5.28;;;3.00;;
7523;SDS011;3803;51.666;7.630;2023-03-24T00:03:05;4.07;;;2.90;;
7523;SDS011;3803;51.666;7.630;2023-03-24T00:03:27;3.75;;;2.97;;
7523;SDS011;3803;51.666;7.630;2023-03-24T00:03:48;5.10;;;3.20;;
7523;SDS011;3803;51.666;7.630;2023-03-24T00:04:11;5.57;;;3.25;;
7523;SDS011;3803;51.666;7.630;2023-03-24T00:04:32;5.30;;;2.97;;
7523;SDS011;3803;51.666;7.630;2023-03-24T00:04:53;4.10;;;2.70;;
7523;SDS011;3803;51.666;7.630;2023-03-24T00:05:18;4.25;;;2.70;;
7523;SDS011;3803;51.666;7.630;2023-03-24T00:05:40;5.40;;;3.10;;
7523;SDS011;3803;51.666;7.630;2023-03-24T00:06:02;4.70;;;3.00;;
7523;SDS011;3803;51.666;7.630;2023-03-24T00:06:24;6.40;;;3.30;;
7523;SDS011;3803;51.666;7.630;2023-03-24T00:06:46;5.35;;;3.30;;
7523;SDS011;3803;51.666;7.630;2023-03-24T00:07:09;4.03;;;3.10;;
7523;SDS011;3803;51.666;7.630;2023-03-24T00:07:34;4.00;;;2.90;;
7523;SDS011;3803;51.666;7.630;2023-03-24T00:07:57;4.50;;;2.90;;
7523;SDS011;3803;51.666;7.630;2023-03-24T00:08:22;4.20;;;2.80;;
7523;SDS011;3803;51.666;7.630;2023-03-24T00:08:43;3.75;;;2.88;;
7523;SDS011;3803;51.666;7.630;2023-03-24T00:09:07;4.55;;;2.95;;
7523;SDS011;3803;51.666;7.630;2023-03-24T00:09:28;4.50;;;3.20;;
7523;SDS011;3803;51.666;7.630;2023-03-24T00:09:56;4.93;;;3.10;;
7523;SDS011;3803;51.666;7.630;2023-03-24T00:10:18;4.13;;;2.80;;
7523;SDS011;3803;51.666;7.630;2023-03-24T00:10:43;5.78;;;2.88;;
7523;SDS011;3803;51.666;7.630;2023-03-24T00:11:07;5.80;;;2.90;;
7523;SDS011;3803;51.666;7.630;2023-03-24T00:11:31;3.40;;;2.70;;
7523;SDS011;3803;51.666;7.630;2023-03-24T00:11:55;3.58;;;2.70;;
7523;SDS011;3803;51.666;7.630;2023-03-24T00:12:16;3.47;;;2.80;;
7523;SDS011;3803;51.666;7.630;2023-03-24T00:12:37;3.53;;;2.90;;
7523;SDS011;3803;51.666;7.630;2023-03-24T00:12:59;4.78;;;3.10;;
7523;SDS011;3803;51.666;7.630;2023-03-24T00:13:32;6.45;;;3.35;;
7523;SDS011;3803;51.666;7.630;2023-03-24T00:13:57;5.45;;;3.28;;
7523;SDS011;3803;51.666;7.630;2023-03-24T00:14:17;4.07;;;3.05;;
7523;SDS011;3803;51.666;7.630;2023-03-24T00:14:38;4.15;;;2.80;;
7523;SDS011;3803;51.666;7.630;2023-03-24T00:15:00;4.38;;;2.90;;
7523;SDS011;3803;51.666;7.630;2023-03-24T00:15:21;3.90;;;2.90;;
7523;SDS011;3803;51.666;7.630;2023-03-24T00:15:43;5.22;;;2.90;;
7523;SDS011;3803;51.666;7.630;2023-03-24T00:16:05;5.35;;;2.95;;
7523;SDS011;3803;51.666;7.630;2023-03-24T00:16:27;5.72;;;3.20;;
7523;SDS011;3803;51.666;7.630;2023-03-24T00:16:49;4.22;;;3.10;;
7523;SDS011;3803;51.666;7.630;2023-03-24T00:17:10;3.88;;;3.08;;
7523;SDS011;3803;51.666;7.630;2023-03-24T00:17:36;3.30;;;2.90;;
7523;SDS011;3803;51.666;7.630;2023-03-24T00:17:58;5.78;;;3.30;;
7523;SDS011;3803;51.666;7.630;2023-03-24T00:18:19;6.95;;;3.25;;
7523;SDS011;3803;51.666;7.630;2023-03-24T00:18:41;8.20;;;3.30;;
7523;SDS011;3803;51.666;7.630;2023-03-24T00:19:02;6.30;;;2.97;;
7523;SDS011;3803;51.666;7.630;2023-03-24T00:19:24;4.93;;;2.80;;
7523;SDS011;3803;51.666;7.630;2023-03-24T00:19:44;3.88;;;2.60;;
7523;SDS011;3803;51.666;7.630;2023-03-24T00:20:06;3.40;;;2.60;;
7523;SDS011;3803;51.666;7.630;2023-03-24T00:20:36;4.30;;;3.00;;
7523;SDS011;3803;51.666;7.630;2023-03-24T00:20:56;4.57;;;3.13;;
7523;SDS011;3803;51.666;7.630;2023-03-24T00:21:17;4.93;;;3.00;;
7523;SDS011;3803;51.666;7.630;2023-03-24T00:21:41;3.85;;;2.83;;
7523;SDS011;3803;51.666;7.630;2023-03-24T00:22:03;3.95;;;2.80;;
7523;SDS011;3803;51.666;7.630;2023-03-24T00:22:25;4.50;;;2.90;;
7523;SDS011;3803;51.666;7.630;2023-03-24T00:22:48;4.60;;;2.85;;
7523;SDS011;3803;51.666;7.630;2023-03-24T00:23:16;3.95;;;2.80;;
7523;SDS011;3803;51.666;7.630;2023-03-24T00:23:37;3.85;;;2.75;;
7523;SDS011;3803;51.666;7.630;2023-03-24T00:23:58;5.53;;;2.80;;
7523;SDS011;3803;51.666;7.630;2023-03-24T00:24:20;4.93;;;2.83;;
7523;SDS011;3803;51.666;7.630;2023-03-24T00:24:41;3.80;;;2.90;;
7523;SDS011;3803;51.666;7.630;2023-03-24T00:25:05;3.10;;;2.80;;
7523;SDS011;3803;51.666;7.630;2023-03-24T00:25:27;3.17;;;2.88;;
7523;SDS011;3803;51.666;7.630;2023-03-24T00:26:00;3.40;;;2.90;;
7523;SDS011;3803;51.666;7.630;2023-03-24T00:26:28;3.83;;;2.83;;
7523;SDS011;3803;51.666;7.630;2023-03-24T00:26:49;3.95;;;2.83;;
7523;SDS011;3803;51.666;7.630;2023-03-24T00:27:20;4.65;;;3.00;;
7523;SDS011;3803;51.666;7.630;2023-03-24T00:27:41;3.85;;;2.50;;
7523;SDS011;3803;51.666;7.630;2023-03-24T00:28:04;5.63;;;2.47;;
7523;SDS011;3803;51.666;7.630;2023-03-24T00:28:26;5.95;;;2.70;;
7523;SDS011;3803;51.666;7.630;2023-03-24T00:28:48;5.50;;;2.90;;
7523;SDS011;3803;51.666;7.630;2023-03-24T00:29:09;3.70;;;2.90;;
7523;SDS011;3803;51.666;7.630;2023-03-24T00:29:30;4.07;;;2.90;;
7523;SDS011;3803;51.666;7.630;2023-03-24T00:29:51;4.30;;;2.95;;
7523;SDS011;3803;51.666;7.630;2023-03-24T00:30:12;4.95;;;3.10;;
7523;SDS011;3803;51.666;7.630;2023-03-24T00:30:33;4.70;;;3.00;;
7523;SDS011;3803;51.666;7.630;2023-03-24T00:30:54;4.50;;;2.83;;
7523;SDS011;3803;51.666;7.630;2023-03-24T00:31:15;4.73;;;2.70;;
7523;SDS011;3803;51.666;7.630;2023-03-24T00:31:37;4.63;;;2.80;;
7523;SDS011;3803;51.666;7.630;2023-03-24T00:31:59;4.55;;;2.90;;
7523;SDS011;3803;51.666;7.630;2023-03-24T00:32:20;3.63;;;2.90;;
7523;SDS011;3803;51.666;7.630;2023-03-24T00:32:42;3.83;;;2.83;;
7523;SDS011;3803;51.666;7.630;2023-03-24T00:33:03;3.95;;;2.70;;
7523;SDS011;3803;51.666;7.630;2023-03-24T00:33:23;4.00;;;2.83;;
7523;SDS011;3803;51.666;7.630;2023-03-24T00:33:45;4.35;;;2.80;;
7523;SDS011;3803;51.666;7.630;2023-03-24T00:34:10;4.47;;;2.70;;
7523;SDS011;3803;51.666;7.630;2023-03-24T00:34:32;4.50;;;2.60;;
7523;SDS011;3803;51.666;7.630;2023-03-24T00:34:53;3.40;;;2.70;;
7523;SDS011;3803;51.666;7.630;2023-03-24T00:35:14;3.70;;;2.70;;
7523;SDS011;3803;51.666;7.630;2023-03-24T00:35:37;3.38;;;2.70;;
7523;SDS011;3803;51.666;7.630;2023-03-24T00:35:58;3.70;;;2.80;;
7523;SDS011;3803;51.666;7.630;2023-03-24T00:36:20;3.60;;;2.88;;
7523;SDS011;3803;51.666;7.630;2023-03-24T00:36:42;3.78;;;2.70;;
7523;SDS011;3803;51.666;7.630;2023-03-24T00:37:03;4.30;;;2.80;;
7523;SDS011;3803;51.666;7.630;2023-03-24T00:37:25;3.92;;;2.75;;
7523;SDS011;3803;51.666;7.630;2023-03-24T00:37:46;3.90;;;3.10;;
7523;SDS011;3803;51.666;7.630;2023-03-24T00:38:07;3.53;;;3.10;;
7523;SDS011;3803;51.666;7.630;2023-03-24T00:38:28;3.83;;;3.43;;
7523;SDS011;3803;51.666;7.630;2023-03-24T00:38:49;3.53;;;3.13;;
7523;SDS011;3803;51.666;7.630;2023-03-24T00:39:09;3.90;;;3.10;;
7523;SDS011;3803;51.666;7.630;2023-03-24T00:39:30;3.90;;;2.80;;
7523;SDS011;3803;51.666;7.630;2023-03-24T00:39:51;3.80;;;2.70;;
7523;SDS011;3803;51.666;7.630;2023-03-24T00:40:13;3.50;;;2.80;;
7523;SDS011;3803;51.666;7.630;2023-03-24T00:40:36;5.28;;;2.90;;
7523;SDS011;3803;51.666;7.630;2023-03-24T00:40:56;5.72;;;2.95;;
7523;SDS011;3803;51.666;7.630;2023-03-24T00:41:19;5.72;;;2.85;;
7523;SDS011;3803;51.666;7.630;2023-03-24T00:41:40;3.28;;;2.65;;
7523;SDS011;3803;51.666;7.630;2023-03-24T00:42:04;4.18;;;2.80;;
7523;SDS011;3803;51.666;7.630;2023-03-24T00:42:26;4.40;;;2.90;;
7523;SDS011;3803;51.666;7.630;2023-03-24T00:42:47;3.88;;;2.75;;
7523;SDS011;3803;51.666;7.630;2023-03-24T00:43:09;3.50;;;2.70;;
7523;SDS011;3803;51.666;7.630;2023-03-24T00:43:30;4.17;;;2.83;;
7523;SDS011;3803;51.666;7.630;2023-03-24T00:43:52;4.32;;;2.85;;
7523;SDS011;3803;51.666;7.630;2023-03-24T00:44:17;5.00;;;2.88;;
7523;SDS011;3803;51.666;7.630;2023-03-24T00:44:38;4.97;;;2.65;;
7523;SDS011;3803;51.666;7.630;2023-03-24T00:44:58;4.80;;;2.80;;
7523;SDS011;3803;51.666;7.630;2023-03-24T00:45:20;4.20;;;2.90;;
7523;SDS011;3803;51.666;7.630;2023-03-24T00:45:45;3.35;;;2.90;;
7523;SDS011;3803;51.666;7.630;2023-03-24T00:46:07;3.28;;;2.80;;
7523;SDS011;3803;51.666;7.630;2023-03-24T00:46:33;3.25;;;2.60;;
7523;SDS011;3803;51.666;7.630;2023-03-24T00:46:54;4.35;;;2.60;;
7523;SDS011;3803;51.666;7.630;2023-03-24T00:47:15;3.80;;;2.60;;
7523;SDS011;3803;51.666;7.630;2023-03-24T00:47:37;3.95;;;2.80;;
7523;SDS011;3803;51.666;7.630;2023-03-24T00:47:57;3.38;;;2.70;;
7523;SDS011;3803;51.666;7.630;2023-03-24T00:48:18;4.07;;;2.80;;
7523;SDS011;3803;51.666;7.630;2023-03-24T00:48:39;4.30;;;2.80;;
7523;SDS011;3803;51.666;7.630;2023-03-24T00:49:05;3.65;;;2.80;;
7523;SDS011;3803;51.666;7.630;2023-03-24T00:49:27;4.65;;;2.80;;
7523;SDS011;3803;51.666;7.630;2023-03-24T00:50:05;5.40;;;2.70;;
7523;SDS011;3803;51.666;7.630;2023-03-24T00:50:28;4.35;;;2.83;;
7523;SDS011;3803;51.666;7.630;2023-03-24T00:50:52;4.15;;;2.80;;
7523;SDS011;3803;51.666;7.630;2023-03-24T00:51:13;4.10;;;2.80;;
7523;SDS011;3803;51.666;7.630;2023-03-24T00:51:35;4.15;;;2.80;;
7523;SDS011;3803;51.666;7.630;2023-03-24T00:51:57;3.60;;;2.65;;
7523;SDS011;3803;51.666;7.630;2023-03-24T00:52:21;3.15;;;2.60;;
7523;SDS011;3803;51.666;7.630;2023-03-24T00:52:42;3.28;;;2.60;;
7523;SDS011;3803;51.666;7.630;2023-03-24T00:53:03;3.80;;;2.80;;
7523;SDS011;3803;51.666;7.630;2023-03-24T00:53:24;2.97;;;2.60;;
7523;SDS011;3803;51.666;7.630;2023-03-24T00:53:48;3.38;;;2.60;;
7523;SDS011;3803;51.666;7.630;2023-03-24T00:54:10;3.72;;;2.70;;
7523;SDS011;3803;51.666;7.630;2023-03-24T00:54:31;3.80;;;2.80;;
7523;SDS011;3803;51.666;7.630;2023-03-24T00:54:52;4.23;;;2.90;;
7523;SDS011;3803;51.666;7.630;2023-03-24T00:55:18;4.80;;;2.80;;
7523;SDS011;3803;51.666;7.630;2023-03-24T00:55:43;5.00;;;2.83;;
7523;SDS011;3803;51.666;7.630;2023-03-24T00:56:08;3.50;;;2.55;;
7523;SDS011;3803;51.666;7.630;2023-03-24T00:56:32;3.45;;;2.50;;
7523;SDS011;3803;51.666;7.630;2023-03-24T00:56:54;3.40;;;2.70;;
7523;SDS011;3803;51.666;7.630;2023-03-24T00:57:16;4.35;;;2.90;;
7523;SDS011;3803;51.666;7.630;2023-03-24T00:57:45;5.43;;;3.13;;
7523;SDS011;3803;51.666;7.630;2023-03-24T00:58:13;4.68;;;2.90;;
7523;SDS011;3803;51.666;7.630;2023-03-24T00:58:38;2.75;;;2.55;;
7523;SDS011;3803;51.666;7.630;2023-03-24T00:58:59;2.97;;;2.60;;
7523;SDS011;3803;51.666;7.630;2023-03-24T00:59:21;3.10;;;2.50;;
7523;SDS011;3803;51.666;7.630;2023-03-24T00:59:42;3.25;;;2.53;;
7523;SDS011;3803;51.666;7.630;2023-03-24T01:00:08;3.00;;;2.70;;
7523;SDS011;3803;51.666;7.630;2023-03-24T01:00:33;3.28;;;2.90;;
7523;SDS011;3803;51.666;7.630;2023-03-24T01:00:56;3.05;;;2.75;;
7523;SDS011;3803;51.666;7.630;2023-03-24T01:01:17;3.05;;;2.72;;
7523;SDS011;3803;51.666;7.630;2023-03-24T01:01:41;4.00;;;2.80;;
7523;SDS011;3803;51.666;7.630;2023-03-24T01:02:02;4.20;;;2.95;;
7523;SDS011;3803;51.666;7.630;2023-03-24T01:02:24;3.00;;;2.67;;
7523;SDS011;3803;51.666;7.630;2023-03-24T01:02:47;2.90;;;2.60;;
7523;SDS011;3803;51.666;7.630;2023-03-24T01:03:15;3.38;;;2.60;;
7523;SDS011;3803;51.666;7.630;2023-03-24T01:03:37;3.30;;;2.60;;
7523;SDS011;3803;51.666;7.630;2023-03-24T01:04:07;4.68;;;2.70;;
7523;SDS011;3803;51.666;7.630;2023-03-24T01:04:31;5.53;;;2.80;;
7523;SDS011;3803;51.666;7.630;2023-03-24T01:04:56;5.00;;;2.80;;
7523;SDS011;3803;51.666;7.630;2023-03-24T01:05:22;4.15;;;2.60;;
7523;SDS011;3803;51.666;7.630;2023-03-24T01:05:47;5.05;;;2.65;;
7523;SDS011;3803;51.666;7.630;2023-03-24T01:06:08;5.25;;;2.80;;
7523;SDS011;3803;51.666;7.630;2023-03-24T01:06:30;4.00;;;2.78;;
7523;SDS011;3803;51.666;7.630;2023-03-24T01:06:52;5.40;;;2.63;;
7523;SDS011;3803;51.666;7.630;2023-03-24T01:07:13;6.13;;;2.80;;
7523;SDS011;3803;51.666;7.630;2023-03-24T01:07:38;5.80;;;2.90;;
7523;SDS011;3803;51.666;7.630;2023-03-24T01:08:01;3.25;;;2.70;;
7523;SDS011;3803;51.666;7.630;2023-03-24T01:08:24;3.88;;;2.80;;
7523;SDS011;3803;51.666;7.630;2023-03-24T01:08:45;4.28;;;2.67;;
7523;SDS011;3803;51.666;7.630;2023-03-24T01:09:06;3.95;;;2.55;;
7523;SDS011;3803;51.666;7.630;2023-03-24T01:09:27;3.28;;;2.40;;
7523;SDS011;3803;51.666;7.630;2023-03-24T01:09:48;2.85;;;2.50;;
7523;SDS011;3803;51.666;7.630;2023-03-24T01:10:18;2.83;;;2.53;;
7523;SDS011;3803;51.666;7.630;2023-03-24T01:10:40;2.70;;;2.50;;
7523;SDS011;3803;51.666;7.630;2023-03-24T01:11:12;2.90;;;2.50;;
7523;SDS011;3803;51.666;7.630;2023-03-24T01:11:37;2.93;;;2.50;;
7523;SDS011;3803;51.666;7.630;2023-03-24T01:12:01;2.55;;;2.35;;
7523;SDS011;3803;51.666;7.630;2023-03-24T01:12:25;3.10;;;2.80;;
7523;SDS011;3803;51.666;7.630;2023-03-24T01:12:48;3.80;;;2.80;;
7523;SDS011;3803;51.666;7.630;2023-03-24T01:13:08;3.10;;;2.70;;
7523;SDS011;3803;51.666;7.630;2023-03-24T01:13:29;3.05;;;2.60;;
7523;SDS011;3803;51.666;7.630;2023-03-24T01:13:50;2.83;;;2.63;;
7523;SDS011;3803;51.666;7.630;2023-03-24T01:14:27;2.90;;;2.65;;
7523;SDS011;3803;51.666;7.630;2023-03-24T01:14:48;3.45;;;2.55;;
7523;SDS011;3803;51.666;7.630;2023-03-24T01:15:12;3.90;;;2.60;;
7523;SDS011;3803;51.666;7.630;2023-03-24T01:15:35;3.63;;;2.67;;
7523;SDS011;3803;51.666;7.630;2023-03-24T01:15:56;2.80;;;2.50;;
7523;SDS011;3803;51.666;7.630;2023-03-24T01:16:17;3.38;;;2.42;;
7523;SDS011;3803;51.666;7.630;2023-03-24T01:16:39;3.50;;;2.45;;
7523;SDS011;3803;51.666;7.630;2023-03-24T01:17:01;3.80;;;2.60;;
7523;SDS011;3803;51.666;7.630;2023-03-24T01:17:22;3.20;;;2.70;;
7523;SDS011;3803;51.666;7.630;2023-03-24T01:17:45;3.10;;;2.72;;
7523;SDS011;3803;51.666;7.630;2023-03-24T01:18:07;2.78;;;2.40;;
7523;SDS011;3803;51.666;7.630;2023-03-24T01:18:29;3.80;;;2.35;;
7523;SDS011;3803;51.666;7.630;2023-03-24T01:18:49;4.18;;;2.40;;
7523;SDS011;3803;51.666;7.630;2023-03-24T01:19:11;4.05;;;2.55;;
7523;SDS011;3803;51.666;7.630;2023-03-24T01:19:33;3.88;;;2.70;;
7523;SDS011;3803;51.666;7.630;2023-03-24T01:19:54;4.25;;;2.63;;
7523;SDS011;3803;51.666;7.630;2023-03-24T01:20:16;4.25;;;2.60;;
7523;SDS011;3803;51.666;7.630;2023-03-24T01:20:37;4.27;;;2.80;;
7523;SDS011;3803;51.666;7.630;2023-03-24T01:21:00;3.67;;;2.60;;
7523;SDS011;3803;51.666;7.630;2023-03-24T01:21:20;4.07;;;2.47;;
7523;SDS011;3803;51.666;7.630;2023-03-24T01:21:41;3.30;;;2.40;;
7523;SDS011;3803;51.666;7.630;2023-03-24T01:22:02;3.17;;;2.40;;
7523;SDS011;3803;51.666;7.630;2023-03-24T01:22:27;2.70;;;2.50;;
7523;SDS011;3803;51.666;7.630;2023-03-24T01:22:49;3.28;;;2.60;;
7523;SDS011;3803;51.666;7.630;2023-03-24T01:23:12;4.03;;;2.78;;
7523;SDS011;3803;51.666;7.630;2023-03-24T01:23:34;4.20;;;2.60;;
7523;SDS011;3803;51.666;7.630;2023-03-24T01:23:55;4.15;;;2.70;;
7523;SDS011;3803;51.666;7.630;2023-03-24T01:24:16;4.07;;;2.70;;
7523;SDS011;3803;51.666;7.630;2023-03-24T01:24:37;4.65;;;3.00;;
7523;SDS011;3803;51.666;7.630;2023-03-24T01:24:58;4.17;;;3.10;;
7523;SDS011;3803;51.666;7.630;2023-03-24T01:25:21;3.70;;;2.90;;
7523;SDS011;3803;51.666;7.630;2023-03-24T01:25:42;3.05;;;2.50;;
7523;SDS011;3803;51.666;7.630;2023-03-24T01:26:05;3.60;;;2.75;;
7523;SDS011;3803;51.666;7.630;2023-03-24T01:26:27;3.33;;;2.70;;
7523;SDS011;3803;51.666;7.630;2023-03-24T01:26:48;3.42;;;2.63;;
7523;SDS011;3803;51.666;7.630;2023-03-24T01:27:18;3.53;;;2.40;;
7523;SDS011;3803;51.666;7.630;2023-03-24T01:27:39;6.00;;;2.90;;
7523;SDS011;3803;51.666;7.630;2023-03-24T01:28:00;5.22;;;2.88;;
7523;SDS011;3803;51.666;7.630;2023-03-24T01:28:22;6.55;;;3.00;;
7523;SDS011;3803;51.666;7.630;2023-03-24T01:28:44;4.40;;;2.80;;
7523;SDS011;3803;51.666;7.630;2023-03-24T01:29:05;3.55;;;2.60;;
7523;SDS011;3803;51.666;7.630;2023-03-24T01:29:26;2.90;;;2.60;;
7523;SDS011;3803;51.666;7.630;2023-03-24T01:29:47;3.17;;;2.60;;
7523;SDS011;3803;51.666;7.630;2023-03-24T01:30:08;3.28;;;2.63;;
7523;SDS011;3803;51.666;7.630;2023-03-24T01:30:34;3.20;;;2.50;;
7523;SDS011;3803;51.666;7.630;2023-03-24T01:30:55;2.83;;;2.40;;
7523;SDS011;3803;51.666;7.630;2023-03-24T01:31:16;2.55;;;2.35;;
7523;SDS011;3803;51.666;7.630;2023-03-24T01:31:36;2.50;;;2.30;;
7523;SDS011;3803;51.666;7.630;2023-03-24T01:31:57;2.60;;;2.30;;
7523;SDS011;3803;51.666;7.630;2023-03-24T01:32:18;2.70;;;2.30;;
7523;SDS011;3803;51.666;7.630;2023-03-24T01:32:38;2.97;;;2.35;;
7523;SDS011;3803;51.666;7.630;2023-03-24T01:32:59;2.92;;;2.40;;
7523;SDS011;3803;51.666;7.630;2023-03-24T01:33:20;3.70;;;2.50;;
7523;SDS011;3803;51.666;7.630;2023-03-24T01:33:42;3.50;;;2.50;;
7523;SDS011;3803;51.666;7.630;2023-03-24T01:34:02;3.22;;;2.72;;
7523;SDS011;3803;51.666;7.630;2023-03-24T01:34:23;2.97;;;2.67;;
7523;SDS011;3803;51.666;7.630;2023-03-24T01:34:44;3.10;;;2.75;;
7523;SDS011;3803;51.666;7.630;2023-03-24T01:35:05;2.53;;;2.33;;
7523;SDS011;3803;51.666;7.630;2023-03-24T01:35:26;2.40;;;2.20;;
7523;SDS011;3803;51.666;7.630;2023-03-24T01:35:47;2.50;;;2.30;;
7523;SDS011;3803;51.666;7.630;2023-03-24T01:36:08;2.83;;;2.50;;
7523;SDS011;3803;51.666;7.630;2023-03-24T01:36:29;3.00;;;2.70;;
7523;SDS011;3803;51.666;7.630;2023-03-24T01:36:50;3.30;;;2.65;;
7523;SDS011;3803;51.666;7.630;2023-03-24T01:37:11;2.90;;;2.57;;
7523;SDS011;3803;51.666;7.630;2023-03-24T01:37:32;3.30;;;2.60;;
7523;SDS011;3803;51.666;7.630;2023-03-24T01:37:53;3.10;;;2.50;;
7523;SDS011;3803;51.666;7.630;2023-03-24T01:38:14;3.40;;;2.40;;
7523;SDS011;3803;51.666;7.630;2023-03-24T01:38:35;2.72;;;2.30;;
7523;SDS011;3803;51.666;7.630;2023-03-24T01:38:56;3.97;;;2.40;;
7523;SDS011;3803;51.666;7.630;2023-03-24T01:39:20;4.25;;;2.58;;
7523;SDS011;3803;51.666;7.630;2023-03-24T01:39:40;5.00;;;2.58;;
7523;SDS011;3803;51.666;7.630;2023-03-24T01:40:01;3.70;;;2.45;;
7523;SDS011;3803;51.666;7.630;2023-03-24T01:40:27;4.00;;;3.00;;
7523;SDS011;3803;51.666;7.630;2023-03-24T01:40:50;3.35;;;3.05;;
7523;SDS011;3803;51.666;7.630;2023-03-24T01:41:11;3.65;;;2.85;;
7523;SDS011;3803;51.666;7.630;2023-03-24T01:41:34;3.65;;;2.70;;
7523;SDS011;3803;51.666;7.630;2023-03-24T01:41:57;3.40;;;2.60;;
7523;SDS011;3803;51.666;7.630;2023-03-24T01:42:20;3.00;;;2.80;;
7523;SDS011;3803;51.666;7.630;2023-03-24T01:42:43;3.00;;;2.70;;
7523;SDS011;3803;51.666;7.630;2023-03-24T01:43:05;3.30;;;2.90;;
7523;SDS011;3803;51.666;7.630;2023-03-24T01:43:30;3.15;;;2.67;;
7523;SDS011;3803;51.666;7.630;2023-03-24T01:43:52;3.78;;;2.97;;
7523;SDS011;3803;51.666;7.630;2023-03-24T01:46:30;2.95;;;2.75;;
7523;SDS011;3803;51.666;7.630;2023-03-24T01:46:53;3.20;;;2.90;;
7523;SDS011;3803;51.666;7.630;2023-03-24T01:47:14;3.80;;;2.75;;
7523;SDS011;3803;51.666;7.630;2023-03-24T01:47:36;4.25;;;2.70;;
7523;SDS011;3803;51.666;7.630;2023-03-24T01:47:57;4.00;;;2.60;;
7523;SDS011;3803;51.666;7.630;2023-03-24T01:49:00;3.47;;;2.70;;
7523;SDS011;3803;51.666;7.630;2023-03-24T01:49:25;3.30;;;2.70;;
7523;SDS011;3803;51.666;7.630;2023-03-24T01:49:52;3.00;;;2.60;;
7523;SDS011;3803;51.666;7.630;2023-03-24T01:50:15;3.00;;;2.70;;
7523;SDS011;3803;51.666;7.630;2023-03-24T01:50:37;3.70;;;2.70;;
7523;SDS011;3803;51.666;7.630;2023-03-24T01:51:05;4.68;;;2.88;;
7523;SDS011;3803;51.666;7.630;2023-03-24T01:51:35;4.07;;;2.80;;
7523;SDS011;3803;51.666;7.630;2023-03-24T01:51:59;3.67;;;3.00;;
7523;SDS011;3803;51.666;7.630;2023-03-24T01:52:26;3.65;;;3.00;;
7523;SDS011;3803;51.666;7.630;2023-03-24T01:52:50;3.00;;;2.70;;
7523;SDS011;3803;51.666;7.630;2023-03-24T01:53:10;2.90;;;2.60;;
7523;SDS011;3803;51.666;7.630;2023-03-24T01:53:32;3.13;;;2.83;;
7523;SDS011;3803;51.666;7.630;2023-03-24T01:54:02;3.30;;;3.00;;
7523;SDS011;3803;51.666;7.630;2023-03-24T01:54:29;3.50;;;2.90;;
7523;SDS011;3803;51.666;7.630;2023-03-24T01:55:00;3.20;;;2.70;;
7523;SDS011;3803;51.666;7.630;2023-03-24T01:55:27;3.50;;;2.80;;
7523;SDS011;3803;51.666;7.630;2023-03-24T01:55:50;3.47;;;2.60;;
7523;SDS011;3803;51.666;7.630;2023-03-24T01:56:15;3.90;;;2.60;;
7523;SDS011;3803;51.666;7.630;2023-03-24T01:56:38;4.20;;;2.90;;
7523;SDS011;3803;51.666;7.630;2023-03-24T01:57:02;3.83;;;2.80;;
7523;SDS011;3803;51.666;7.630;2023-03-24T01:57:33;3.55;;;2.67;;
7523;SDS011;3803;51.666;7.630;2023-03-24T01:58:15;3.30;;;2.80;;
7523;SDS011;3803;51.666;7.630;2023-03-24T01:58:59;3.30;;;3.00;;
7523;SDS011;3803;51.666;7.630;2023-03-24T01:59:37;3.00;;;2.80;;
7523;SDS011;3803;51.666;7.630;2023-03-24T02:00:11;3.33;;;3.03;;
7523;SDS011;3803;51.666;7.630;2023-03-24T02:00:52;3.38;;;2.90;;
7523;SDS011;3803;51.666;7.630;2023-03-24T02:01:51;3.78;;;2.80;;
7523;SDS011;3803;51.666;7.630;2023-03-24T02:02:33;4.40;;;2.90;;
7523;SDS011;3803;51.666;7.630;2023-03-24T02:02:57;3.75;;;2.90;;
7523;SDS011;3803;51.666;7.630;2023-03-24T02:03:24;3.30;;;3.00;;
7523;SDS011;3803;51.666;7.630;2023-03-24T02:03:49;3.42;;;2.92;;
7523;SDS011;3803;51.666;7.630;2023-03-24T02:04:12;3.45;;;3.03;;
7523;SDS011;3803;51.666;7.630;2023-03-24T02:04:36;5.20;;;2.90;;
7523;SDS011;3803;51.666;7.630;2023-03-24T02:05:03;4.20;;;2.90;;
7523;SDS011;3803;51.666;7.630;2023-03-24T02:05:35;3.05;;;2.85;;
7523;SDS011;3803;51.666;7.630;2023-03-24T02:05:58;3.00;;;2.70;;
7523;SDS011;3803;51.666;7.630;2023-03-24T02:06:21;3.95;;;2.80;;
7523;SDS011;3803;51.666;7.630;2023-03-24T02:06:45;3.95;;;3.05;;
7523;SDS011;3803;51.666;7.630;2023-03-24T02:07:13;6.10;;;3.40;;
7523;SDS011;3803;51.666;7.630;2023-03-24T02:07:45;6.22;;;3.60;;
7523;SDS011;3803;51.666;7.630;2023-03-24T02:08:49;5.28;;;3.38;;
7523;SDS011;3803;51.666;7.630;2023-03-24T02:09:14;5.38;;;3.47;;
7523;SDS011;3803;51.666;7.630;2023-03-24T02:09:37;4.95;;;3.25;;
7523;SDS011;3803;51.666;7.630;2023-03-24T02:09:59;4.80;;;3.10;;
7523;SDS011;3803;51.666;7.630;2023-03-24T02:10:22;4.18;;;2.97;;
7523;SDS011;3803;51.666;7.630;2023-03-24T02:10:44;3.85;;;2.90;;
7523;SDS011;3803;51.666;7.630;2023-03-24T02:11:06;4.72;;;3.22;;
7523;SDS011;3803;51.666;7.630;2023-03-24T02:11:40;6.72;;;3.50;;
7523;SDS011;3803;51.666;7.630;2023-03-24T02:12:01;5.95;;;3.38;;
7523;SDS011;3803;51.666;7.630;2023-03-24T02:12:23;3.50;;;3.20;;
7523;SDS011;3803;51.666;7.630;2023-03-24T02:12:45;3.50;;;3.20;;
7523;SDS011;3803;51.666;7.630;2023-03-24T02:13:07;3.85;;;3.10;;
7523;SDS011;3803;51.666;7.630;2023-03-24T02:13:29;4.55;;;3.10;;
7523;SDS011;3803;51.666;7.630;2023-03-24T02:13:50;5.27;;;3.30;;
7523;SDS011;3803;51.666;7.630;2023-03-24T02:14:11;5.70;;;3.33;;
7523;SDS011;3803;51.666;7.630;2023-03-24T02:14:33;4.90;;;3.20;;
7523;SDS011;3803;51.666;7.630;2023-03-24T02:14:54;4.35;;;3.05;;
7523;SDS011;3803;51.666;7.630;2023-03-24T02:15:16;3.63;;;3.00;;
7523;SDS011;3803;51.666;7.630;2023-03-24T02:15:44;3.47;;;3.17;;
7523;SDS011;3803;51.666;7.630;2023-03-24T02:17:17;3.80;;;3.30;;
7523;SDS011;3803;51.666;7.630;2023-03-24T02:17:53;3.70;;;3.10;;
7523;SDS011;3803;51.666;7.630;2023-03-24T02:21:40;4.70;;;3.35;;
7523;SDS011;3803;51.666;7.630;2023-03-24T02:27:11;3.33;;;3.00;;
7523;SDS011;3803;51.666;7.630;2023-03-24T02:27:56;3.20;;;2.90;;
7523;SDS011;3803;51.666;7.630;2023-03-24T02:29:24;4.45;;;3.13;;
7523;SDS011;3803;51.666;7.630;2023-03-24T02:30:25;7.05;;;3.75;;
7523;SDS011;3803;51.666;7.630;2023-03-24T02:31:20;4.10;;;3.20;;
7523;SDS011;3803;51.666;7.630;2023-03-24T02:35:29;4.55;;;3.55;;
7523;SDS011;3803;51.666;7.630;2023-03-24T02:36:13;3.90;;;3.50;;
7523;SDS011;3803;51.666;7.630;2023-03-24T02:38:11;3.75;;;3.33;;
7523;SDS011;3803;51.666;7.630;2023-03-24T02:40:02;5.30;;;3.30;;
7523;SDS011;3803;51.666;7.630;2023-03-24T02:40:33;4.22;;;3.17;;
7523;SDS011;3803;51.666;7.630;2023-03-24T02:44:02;4.60;;;3.30;;
7523;SDS011;3803;51.666;7.630;2023-03-24T02:44:19;3.90;;;3.50;;
7523;SDS011;3803;51.666;7.630;2023-03-24T02:45:53;3.60;;;3.30;;
7523;SDS011;3803;51.666;7.630;2023-03-24T02:46:26;3.47;;;3.17;;
7523;SDS011;3803;51.666;7.630;2023-03-24T02:49:50;3.80;;;3.40;;
7523;SDS011;3803;51.666;7.630;2023-03-24T02:52:13;4.10;;;3.40;;
7523;SDS011;3803;51.666;7.630;2023-03-24T02:52:52;3.75;;;3.28;;
7523;SDS011;3803;51.666;7.630;2023-03-24T02:54:00;4.68;;;3.40;;
7523;SDS011;3803;51.666;7.630;2023-03-24T02:54:39;4.40;;;3.30;;
7523;SDS011;3803;51.666;7.630;2023-03-24T02:55:56;3.72;;;3.40;;
7523;SDS011;3803;51.666;7.630;2023-03-24T02:57:50;3.65;;;3.35;;
7523;SDS011;3803;51.666;7.630;2023-03-24T02:58:37;4.93;;;3.97;;
7523;SDS011;3803;51.666;7.630;2023-03-24T02:59:03;4.20;;;3.70;;
7523;SDS011;3803;51.666;7.630;2023-03-24T03:00:28;4.43;;;3.70;;
7523;SDS011;3803;51.666;7.630;2023-03-24T03:00:56;3.95;;;3.58;;
7523;SDS011;3803;51.666;7.630;2023-03-24T03:02:00;3.53;;;3.22;;
7523;SDS011;3803;51.666;7.630;2023-03-24T03:02:51;3.65;;;3.30;;
7523;SDS011;3803;51.666;7.630;2023-03-24T03:03:20;4.35;;;3.67;;
7523;SDS011;3803;51.666;7.630;2023-03-24T03:03:50;4.18;;;3.70;;